Mc Clure, Pennsylvania
Current Conditions -  °F | °C
As of 6:53 PM on Saturday 22 Nov 2014 (Local Time) from KUNV Reporting Station
Overcast Overcast  
Wind Chill: 36°   Ceiling: 5000
Heat Index: 36°   Visibility: 10mi
Dew Point: 23°   Wind: 0mph
Humidity: 60%   Direction: NA
Pressure: 30.17"   Gusts: NA
Location:  40.7125°N, 77.3707°W
Report Text: KUNV 222353Z 00000KT 10SM OVC050 02/M05 A3017
Loading
Personal Weather Stations






























Interactive Weather Map New forecast layout! Learn more

10-Day Weather Forecast

Advertisements
Track Severe Weather on mobile